Time;durP1;ratioP1;P1;durP2;ratioP2;P2;SDS_P1;SDS_P2;PMS_P1;PMS_P2;Temp;Humidity;BMP_temperature;BMP_pressure;BME280_temperature;BME280_humidity;BME280_pressure;Samples;Min_cycle;Max_cycle;Signal;HPM_P1;HPM_P2
2021/12/24 00:01:40;;;;;;;21.35;7.25;;;7.30;96.80;;;;;;5000200;28;20104;-49
2021/12/24 00:04:09;;;;;;;16.35;6.70;;;7.30;96.80;;;;;;5003068;28;20428;-49
2021/12/24 00:06:35;;;;;;;17.27;6.72;;;7.30;96.80;;;;;;4999746;28;20030;-50
2021/12/24 00:09:05;;;;;;;14.90;5.65;;;7.30;96.70;;;;;;5000644;28;20030;-50
2021/12/24 00:11:33;;;;;;;14.18;6.07;;;7.30;96.80;;;;;;5001817;28;20088;-50
2021/12/24 00:14:01;;;;;;;16.60;5.90;;;7.30;96.80;;;;;;5000507;28;20046;-50
2021/12/24 00:16:38;;;;;;;14.90;6.75;;;7.30;96.80;;;;;;5001481;28;20042;-50
2021/12/24 00:19:33;;;;;;;18.75;6.88;;;7.30;96.80;;;;;;5001767;28;20381;-50
2021/12/24 00:35:43;;;;;;;18.95;6.55;;;7.30;96.80;;;;;;4999855;28;20192;-49
2021/12/24 00:38:11;;;;;;;15.77;6.38;;;7.30;96.80;;;;;;5003211;28;20134;-50
2021/12/24 00:40:43;;;;;;;13.35;6.13;;;7.30;96.80;;;;;;5003251;28;20022;-49
2021/12/24 00:43:09;;;;;;;17.08;5.88;;;7.30;96.80;;;;;;5005058;28;20119;-50
2021/12/24 00:45:42;;;;;;;11.02;5.00;;;7.30;96.80;;;;;;5001337;28;20456;-50
2021/12/24 00:48:11;;;;;;;12.95;5.25;;;7.30;96.80;;;;;;5001991;28;20105;-50
2021/12/24 00:51:18;;;;;;;14.05;4.53;;;7.30;96.70;;;;;;5003256;28;20041;-50
2021/12/24 00:56:13;;;;;;;12.75;5.25;;;7.30;96.80;;;;;;5006291;28;20093;-50
2021/12/24 00:58:41;;;;;;;12.57;5.80;;;7.30;96.80;;;;;;5001857;28;20030;-49
2021/12/24 01:01:08;;;;;;;11.43;4.43;;;7.30;96.80;;;;;;5003955;28;20535;-50
2021/12/24 01:03:34;;;;;;;8.55;3.95;;;7.30;96.80;;;;;;5003139;28;20116;-50
2021/12/24 01:06:00;;;;;;;11.65;4.88;;;7.20;96.80;;;;;;5000920;28;20440;-50
2021/12/24 01:08:26;;;;;;;12.52;5.25;;;7.30;96.80;;;;;;5003734;28;20033;-50
2021/12/24 01:10:58;;;;;;;12.85;6.07;;;7.30;96.80;;;;;;5002585;28;20095;-50
2021/12/24 01:13:25;;;;;;;16.52;6.47;;;7.20;96.80;;;;;;5003556;28;20041;-50
2021/12/24 01:19:15;;;;;;;11.68;4.65;;;7.20;96.80;;;;;;5000926;28;20022;-50
2021/12/24 01:23:50;;;;;;;12.35;4.47;;;7.30;96.80;;;;;;5001715;28;20030;-50
2021/12/24 01:26:23;;;;;;;8.90;4.70;;;7.30;96.70;;;;;;5002071;28;20043;-50
2021/12/24 01:29:18;;;;;;;11.02;4.63;;;7.30;96.70;;;;;;5003256;28;20030;-50
2021/12/24 01:42:44;;;;;;;13.05;5.15;;;7.30;96.70;;;;;;5002329;28;20373;-50
2021/12/24 01:45:21;;;;;;;9.07;3.80;;;7.30;96.60;;;;;;5002997;28;20034;-49
2021/12/24 01:47:49;;;;;;;13.00;5.57;;;7.30;96.60;;;;;;5003321;28;20022;-51
2021/12/24 01:50:16;;;;;;;10.10;5.22;;;7.30;96.60;;;;;;5002429;28;20034;-50
2021/12/24 01:52:42;;;;;;;10.00;4.53;;;7.30;96.60;;;;;;5003207;28;20441;-50
2021/12/24 01:55:09;;;;;;;9.85;3.78;;;7.30;96.60;;;;;;5002636;28;20049;-50
2021/12/24 01:57:36;;;;;;;14.80;5.15;;;7.30;96.60;;;;;;5003327;28;20030;-50
2021/12/24 02:00:06;;;;;;;10.70;4.53;;;7.30;96.70;;;;;;4999174;28;20034;-50
2021/12/24 02:02:32;;;;;;;16.20;5.63;;;7.30;96.70;;;;;;5000442;28;20524;-50
2021/12/24 02:04:57;;;;;;;9.55;4.75;;;7.30;96.70;;;;;;4997882;28;20022;-50
2021/12/24 02:07:23;;;;;;;11.55;5.55;;;7.30;96.60;;;;;;5002953;28;20026;-50
2021/12/24 02:09:49;;;;;;;15.85;4.95;;;7.30;96.70;;;;;;5003497;28;20072;-49
2021/12/24 02:12:16;;;;;;;14.07;4.75;;;7.30;96.70;;;;;;4999958;28;20027;-50
2021/12/24 02:14:43;;;;;;;14.38;5.18;;;7.30;96.70;;;;;;5004285;28;20034;-50
2021/12/24 02:30:37;;;;;;;11.57;4.70;;;7.30;96.80;;;;;;5001260;28;20037;-49
2021/12/24 02:33:04;;;;;;;5.78;3.53;;;7.30;96.70;;;;;;5000022;28;20018;-50
2021/12/24 02:35:31;;;;;;;7.93;3.47;;;7.30;96.80;;;;;;5001969;28;20104;-50
2021/12/24 02:37:58;;;;;;;11.57;5.80;;;7.30;96.60;;;;;;4999545;28;20076;-50
2021/12/24 02:40:24;;;;;;;10.82;5.10;;;7.30;96.70;;;;;;5003712;28;20449;-50
2021/12/24 02:42:53;;;;;;;15.10;4.40;;;7.30;96.80;;;;;;5004378;28;20050;-50
2021/12/24 02:45:20;;;;;;;15.63;3.87;;;7.30;96.80;;;;;;5000615;28;20038;-50
2021/12/24 02:48:48;;;;;;;9.38;4.80;;;7.30;96.70;;;;;;5006212;28;20025;-50
2021/12/24 02:56:10;;;;;;;0.32;0.32;;;7.30;96.70;;;;;;5002532;28;20133;-49
2021/12/24 02:58:42;;;;;;;12.35;4.68;;;7.40;96.70;;;;;;5000061;28;20227;-49
2021/12/24 03:01:10;;;;;;;10.07;4.25;;;7.30;96.70;;;;;;5000699;28;20117;-50
2021/12/24 03:03:36;;;;;;;9.82;3.80;;;7.40;96.70;;;;;;5001914;28;20065;-50
2021/12/24 03:06:02;;;;;;;7.35;3.00;;;7.40;96.70;;;;;;5000453;28;20480;-50
2021/12/24 03:08:28;;;;;;;9.60;5.05;;;7.30;96.70;;;;;;5001044;28;20060;-50
2021/12/24 03:10:55;;;;;;;9.68;4.50;;;7.30;96.70;;;;;;5000886;28;20033;-50
2021/12/24 03:13:23;;;;;;;8.98;3.72;;;7.30;96.70;;;;;;5000180;28;20045;-50
2021/12/24 03:15:51;;;;;;;10.43;4.18;;;7.30;96.80;;;;;;5002694;28;20034;-50
2021/12/24 03:18:23;;;;;;;11.57;4.60;;;7.40;96.70;;;;;;5003901;28;20044;-50
2021/12/24 03:20:56;;;;;;;6.70;2.45;;;7.30;96.70;;;;;;5000428;28;20034;-50
2021/12/24 03:23:34;;;;;;;11.13;4.90;;;7.40;96.60;;;;;;5001727;28;20034;-50
2021/12/24 03:25:59;;;;;;;4.68;1.80;;;7.40;96.60;;;;;;5001493;28;20116;-50
2021/12/24 03:28:25;;;;;;;9.13;3.63;;;7.40;96.50;;;;;;5001559;28;20030;-49
2021/12/24 03:30:51;;;;;;;6.93;3.83;;;7.40;96.60;;;;;;4999699;28;20030;-50
2021/12/24 03:33:16;;;;;;;11.02;4.32;;;7.40;96.70;;;;;;5000411;28;20069;-50
2021/12/24 03:35:42;;;;;;;11.48;5.00;;;7.40;96.70;;;;;;4998656;28;20050;-50
2021/12/24 03:38:07;;;;;;;8.27;3.58;;;7.40;96.60;;;;;;5002020;28;20021;-50
2021/12/24 03:40:33;;;;;;;9.35;5.10;;;7.30;96.70;;;;;;5004915;28;20453;-50
2021/12/24 03:42:59;;;;;;;11.68;4.93;;;7.40;96.80;;;;;;4991609;28;20484;-50
2021/12/24 03:45:41;;;;;;;9.45;3.97;;;7.40;96.70;;;;;;5003530;28;20055;-50
2021/12/24 03:48:16;;;;;;;7.85;2.97;;;7.40;96.70;;;;;;5002180;28;20077;-49
2021/12/24 03:51:17;;;;;;;9.70;3.85;;;7.40;96.70;;;;;;5001151;28;20038;-50
2021/12/24 03:56:15;;;;;;;20.23;5.35;;;7.40;96.70;;;;;;5000233;28;20386;-50
2021/12/24 03:58:41;;;;;;;6.50;2.28;;;7.40;96.60;;;;;;5000952;28;20018;-49
2021/12/24 04:01:07;;;;;;;10.25;4.85;;;7.40;96.60;;;;;;5005295;28;20030;-50
2021/12/24 04:03:33;;;;;;;10.50;4.57;;;7.40;96.50;;;;;;4998938;28;20069;-50
2021/12/24 04:05:59;;;;;;;3.72;1.77;;;7.40;96.60;;;;;;5000501;28;20022;-50
2021/12/24 04:08:24;;;;;;;6.53;3.67;;;7.40;96.50;;;;;;4999429;28;20165;-50
2021/12/24 04:10:50;;;;;;;3.75;2.67;;;7.40;96.60;;;;;;5002539;28;20022;-50
2021/12/24 04:13:15;;;;;;;11.38;3.65;;;7.40;96.50;;;;;;5002458;28;20450;-50
2021/12/24 04:15:41;;;;;;;2.08;1.60;;;7.40;96.50;;;;;;5003403;28;20184;-50
2021/12/24 04:18:14;;;;;;;6.13;2.25;;;7.40;96.50;;;;;;5005530;28;20510;-50
2021/12/24 04:26:09;;;;;;;8.57;4.53;;;7.40;96.50;;;;;;5005947;28;20065;-50
2021/12/24 04:28:35;;;;;;;8.55;4.57;;;7.40;96.60;;;;;;5003643;28;20022;-50
2021/12/24 04:31:01;;;;;;;17.08;3.65;;;7.40;96.60;;;;;;5004029;28;20109;-49
2021/12/24 04:33:39;;;;;;;8.63;3.80;;;7.40;96.70;;;;;;5001241;28;20464;-49
2021/12/24 04:38:55;;;;;;;10.75;4.55;;;7.40;96.60;;;;;;5004529;28;20026;-49
2021/12/24 05:03:31;;;;;;;8.02;3.22;;;7.40;96.60;;;;;;5003381;28;20081;-50
2021/12/24 05:08:40;;;;;;;4.85;3.25;;;7.40;96.60;;;;;;5003135;28;20029;-50
2021/12/24 05:11:10;;;;;;;5.22;2.47;;;7.50;96.60;;;;;;5002700;28;20034;-50
2021/12/24 05:13:36;;;;;;;;;;;7.50;96.60;;;;;;5003724;28;20029;-50
2021/12/24 05:16:12;;;;;;;6.10;3.03;;;7.50;96.60;;;;;;5000160;28;19913;-50
2021/12/24 05:21:33;;;;;;;7.20;3.42;;;7.50;96.60;;;;;;5007340;28;20436;-50
2021/12/24 05:24:07;;;;;;;8.45;3.83;;;7.50;96.80;;;;;;5003794;28;20028;-50
2021/12/24 05:26:34;;;;;;;10.40;3.85;;;7.40;96.80;;;;;;5001107;28;20030;-50
2021/12/24 05:29:00;;;;;;;10.15;3.85;;;7.40;96.80;;;;;;5003588;28;20034;-50
2021/12/24 05:31:27;;;;;;;7.50;3.88;;;7.50;96.80;;;;;;5003788;28;20105;-50
2021/12/24 05:33:53;;;;;;;7.07;3.85;;;7.50;96.80;;;;;;5002088;28;20041;-50
2021/12/24 05:36:18;;;;;;;7.38;3.75;;;7.50;96.80;;;;;;5004677;28;20038;-50
2021/12/24 05:38:46;;;;;;;2.95;1.77;;;7.50;96.70;;;;;;5011972;28;20455;-49
2021/12/24 05:41:14;;;;;;;9.63;3.95;;;7.50;96.70;;;;;;5007332;28;20038;-52
2021/12/24 05:43:41;;;;;;;5.28;2.97;;;7.50;96.70;;;;;;5003698;28;20084;-50
2021/12/24 05:46:07;;;;;;;9.98;3.67;;;7.50;96.80;;;;;;5001977;28;20069;-50
2021/12/24 05:48:32;;;;;;;9.50;4.03;;;7.50;96.80;;;;;;5001675;28;20057;-50
2021/12/24 05:50:58;;;;;;;10.07;3.72;;;7.50;96.70;;;;;;5003739;28;20384;-50
2021/12/24 05:53:25;;;;;;;8.30;3.80;;;7.50;96.80;;;;;;5000200;28;20328;-50
2021/12/24 05:55:51;;;;;;;4.10;2.25;;;7.50;96.90;;;;;;5003061;28;20069;-49
2021/12/24 05:58:18;;;;;;;7.50;3.75;;;7.50;96.80;;;;;;5007247;28;20022;-50
2021/12/24 06:00:43;;;;;;;7.88;4.05;;;7.50;96.70;;;;;;5003678;28;20049;-50
2021/12/24 06:03:10;;;;;;;6.68;4.10;;;7.50;96.70;;;;;;5001295;28;20030;-50
2021/12/24 06:05:37;;;;;;;9.68;3.33;;;7.50;96.80;;;;;;5003658;28;20050;-50
2021/12/24 06:08:04;;;;;;;12.90;4.47;;;7.50;96.80;;;;;;5001474;28;20022;-50
2021/12/24 06:10:30;;;;;;;7.75;3.47;;;7.50;96.80;;;;;;5003290;28;20026;-50
2021/12/24 06:12:57;;;;;;;14.13;4.22;;;7.50;96.80;;;;;;5002854;28;20125;-50
2021/12/24 06:15:25;;;;;;;12.07;4.47;;;7.50;96.80;;;;;;5002014;28;20058;-50
2021/12/24 06:17:54;;;;;;;11.35;4.65;;;7.50;96.80;;;;;;5001787;28;20026;-50
2021/12/24 06:20:20;;;;;;;4.90;3.00;;;7.50;96.80;;;;;;5005231;28;20511;-50
2021/12/24 06:22:47;;;;;;;12.15;4.88;;;7.50;96.70;;;;;;5000130;28;20045;-50
2021/12/24 06:25:13;;;;;;;13.30;4.78;;;7.50;96.80;;;;;;5001237;28;20034;-50
2021/12/24 06:27:38;;;;;;;10.07;3.58;;;7.50;96.70;;;;;;5002537;28;20088;-50
2021/12/24 06:30:06;;;;;;;9.05;4.47;;;7.50;96.80;;;;;;5002289;28;20299;-50
2021/12/24 06:32:32;;;;;;;13.63;5.20;;;7.50;96.70;;;;;;4999104;28;20440;-50
2021/12/24 06:34:58;;;;;;;9.90;5.22;;;7.50;96.80;;;;;;5002191;28;20026;-50
2021/12/24 06:37:24;;;;;;;14.27;5.47;;;7.50;96.80;;;;;;5001955;28;20069;-49
2021/12/24 06:39:50;;;;;;;10.52;5.25;;;7.50;96.90;;;;;;5001123;28;20050;-50
2021/12/24 06:42:16;;;;;;;7.80;4.18;;;7.50;96.90;;;;;;5003786;28;20034;-49
2021/12/24 06:44:42;;;;;;;7.60;3.92;;;7.50;96.90;;;;;;5003099;28;20515;-50
2021/12/24 06:47:08;;;;;;;10.05;4.18;;;7.50;96.80;;;;;;5001721;28;20448;-50
2021/12/24 06:49:34;;;;;;;10.55;4.63;;;7.50;96.80;;;;;;5000610;28;20581;-49
2021/12/24 06:51:59;;;;;;;10.80;5.55;;;7.50;96.80;;;;;;5005229;28;20382;-50
2021/12/24 06:54:25;;;;;;;13.25;5.53;;;7.50;96.80;;;;;;5001811;28;20449;-50
2021/12/24 06:56:51;;;;;;;11.38;4.95;;;7.50;96.90;;;;;;5000575;28;20453;-50
2021/12/24 06:59:17;;;;;;;13.15;5.32;;;7.50;97.30;;;;;;5002957;28;20033;-50
2021/12/24 07:01:43;;;;;;;9.00;4.70;;;7.50;97.00;;;;;;5001873;28;20412;-50
2021/12/24 07:04:09;;;;;;;12.15;4.97;;;7.50;97.00;;;;;;5003666;28;20604;-49
2021/12/24 07:06:35;;;;;;;12.20;4.75;;;7.50;97.00;;;;;;5000769;28;20235;-49
2021/12/24 07:09:00;;;;;;;13.57;4.80;;;7.50;97.00;;;;;;5001348;28;20381;-50
2021/12/24 07:11:26;;;;;;;7.45;4.40;;;7.50;97.10;;;;;;5002177;28;20025;-49
2021/12/24 07:13:52;;;;;;;14.70;5.85;;;7.50;97.10;;;;;;4998506;28;20073;-49
2021/12/24 07:16:18;;;;;;;10.98;5.03;;;7.50;97.20;;;;;;5001940;28;20038;-50
2021/12/24 07:18:44;;;;;;;9.50;4.18;;;7.50;97.10;;;;;;4999949;28;20041;-50
2021/12/24 07:21:10;;;;;;;11.75;5.03;;;7.50;97.10;;;;;;5001066;28;20044;-50
2021/12/24 07:23:36;;;;;;;11.50;4.47;;;7.50;97.10;;;;;;4998297;28;20027;-50
2021/12/24 07:26:02;;;;;;;5.95;2.63;;;7.50;97.10;;;;;;5001975;28;20421;-50
2021/12/24 07:28:28;;;;;;;13.52;5.03;;;7.50;97.00;;;;;;5001576;28;20022;-50
2021/12/24 07:30:53;;;;;;;13.77;4.60;;;7.60;97.00;;;;;;4999962;28;20122;-49
2021/12/24 07:33:19;;;;;;;7.53;4.63;;;7.50;97.10;;;;;;4998993;28;20030;-50
2021/12/24 07:35:45;;;;;;;9.05;3.65;;;7.50;97.10;;;;;;5003563;28;20280;-50
2021/12/24 07:38:13;;;;;;;18.73;4.95;;;7.50;97.10;;;;;;4999300;28;20040;-50
2021/12/24 07:40:41;;;;;;;11.27;5.30;;;7.50;97.20;;;;;;5001071;28;20484;-50
2021/12/24 07:43:06;;;;;;;9.32;3.65;;;7.50;97.20;;;;;;5002734;28;20033;-50
2021/12/24 07:45:32;;;;;;;12.52;5.22;;;7.50;97.10;;;;;;4998172;28;20034;-50
2021/12/24 07:48:12;;;;;;;10.90;4.95;;;7.50;97.20;;;;;;5003742;28;20034;-50
2021/12/24 07:53:14;;;;;;;1.35;1.27;;;7.50;97.10;;;;;;5006585;28;20026;-50
2021/12/24 07:55:41;;;;;;;10.45;4.90;;;7.50;97.10;;;;;;5005991;28;20038;-50
2021/12/24 07:58:07;;;;;;;14.50;5.22;;;7.60;97.20;;;;;;5003170;28;20018;-50
2021/12/24 08:00:34;;;;;;;13.23;4.65;;;7.50;97.20;;;;;;5008781;28;20065;-50
2021/12/24 08:03:04;;;;;;;16.90;5.00;;;7.50;97.30;;;;;;5007338;28;20062;-50
2021/12/24 08:05:35;;;;;;;8.52;4.93;;;7.50;97.30;;;;;;5002672;28;20061;-50
2021/12/24 08:08:02;;;;;;;13.73;4.75;;;7.50;97.30;;;;;;5005023;28;20026;-50
2021/12/24 08:10:30;;;;;;;11.43;5.00;;;7.60;97.30;;;;;;5003036;28;20058;-50
2021/12/24 08:12:55;;;;;;;13.50;4.68;;;7.50;97.40;;;;;;5007812;28;20105;-50
2021/12/24 08:15:21;;;;;;;12.85;5.68;;;7.50;97.40;;;;;;5005462;28;20137;-50
2021/12/24 08:17:47;;;;;;;10.32;4.82;;;7.50;97.40;;;;;;5003514;28;20026;-50
2021/12/24 08:20:15;;;;;;;8.23;4.60;;;7.60;97.40;;;;;;5004713;28;20452;-50
2021/12/24 08:22:41;;;;;;;9.80;4.00;;;7.60;97.40;;;;;;5004247;28;20061;-49
2021/12/24 08:25:09;;;;;;;11.30;4.90;;;7.50;97.40;;;;;;5001564;28;20401;-50
2021/12/24 08:27:35;;;;;;;7.35;3.78;;;7.60;97.40;;;;;;5004482;28;20172;-50
2021/12/24 08:30:03;;;;;;;10.40;4.65;;;7.50;97.20;;;;;;5002840;28;20033;-50
2021/12/24 08:32:29;;;;;;;14.57;4.72;;;7.50;97.40;;;;;;5003838;28;20311;-50
2021/12/24 08:34:55;;;;;;;11.52;4.60;;;7.60;97.30;;;;;;5007503;28;20034;-49
2021/12/24 08:37:23;;;;;;;8.50;4.30;;;7.60;97.30;;;;;;5002493;28;20177;-49
2021/12/24 08:39:49;;;;;;;7.35;4.40;;;7.60;97.30;;;;;;5003829;28;20353;-50
2021/12/24 08:42:17;;;;;;;15.30;4.00;;;7.60;97.30;;;;;;5004456;28;20032;-50
2021/12/24 08:44:43;;;;;;;8.80;3.65;;;7.60;97.20;;;;;;5000331;28;20454;-50
2021/12/24 08:47:09;;;;;;;10.65;4.82;;;7.60;97.30;;;;;;5004957;28;20030;-49
2021/12/24 08:49:34;;;;;;;6.93;3.80;;;7.60;97.30;;;;;;5002759;28;20446;-50
2021/12/24 08:52:00;;;;;;;8.20;4.15;;;7.60;97.40;;;;;;5003469;28;20032;-50
2021/12/24 08:54:26;;;;;;;10.88;3.33;;;7.60;97.30;;;;;;5010627;28;20022;-50
2021/12/24 08:56:53;;;;;;;12.45;4.15;;;7.60;97.40;;;;;;5004653;28;20446;-50
2021/12/24 08:59:19;;;;;;;6.18;3.78;;;7.60;97.30;;;;;;5003404;28;20113;-50
2021/12/24 09:01:45;;;;;;;5.88;3.20;;;7.60;97.20;;;;;;5001578;28;20062;-50
2021/12/24 09:04:12;;;;;;;7.72;3.60;;;7.60;97.30;;;;;;5006367;28;20029;-50
2021/12/24 09:06:37;;;;;;;7.38;3.83;;;7.60;97.20;;;;;;5004797;28;20508;-50
2021/12/24 09:09:06;;;;;;;8.80;4.88;;;7.60;97.30;;;;;;5003536;28;20118;-50
2021/12/24 09:11:33;;;;;;;11.05;4.53;;;7.60;97.40;;;;;;5004662;28;20026;-50
2021/12/24 09:13:59;;;;;;;14.10;3.00;;;7.60;97.40;;;;;;5007157;28;20033;-50
2021/12/24 09:16:24;;;;;;;4.65;3.40;;;7.60;97.30;;;;;;5008506;28;20057;-50
2021/12/24 09:18:57;;;;;;;5.82;2.45;;;7.60;96.80;;;;;;5005849;28;20072;-50
2021/12/24 09:21:23;;;;;;;9.65;4.85;;;7.60;96.70;;;;;;5006079;28;20059;-49
2021/12/24 09:23:49;;;;;;;8.90;4.68;;;7.60;96.90;;;;;;5007914;28;20022;-49
2021/12/24 09:26:17;;;;;;;9.77;4.78;;;7.60;97.10;;;;;;5004781;28;20077;-49
2021/12/24 09:28:44;;;;;;;7.35;2.38;;;7.60;97.10;;;;;;5007292;28;20038;-49
2021/12/24 09:31:10;;;;;;;7.90;4.00;;;7.60;97.10;;;;;;5006508;28;20030;-50
2021/12/24 09:33:36;;;;;;;9.02;4.35;;;7.60;97.20;;;;;;5002772;28;20449;-50
2021/12/24 09:36:01;;;;;;;5.38;2.97;;;7.70;97.20;;;;;;5007166;28;20445;-50
2021/12/24 09:38:27;;;;;;;9.43;3.97;;;7.70;97.10;;;;;;5002906;28;20046;-50
2021/12/24 09:40:52;;;;;;;3.42;2.28;;;7.60;97.30;;;;;;5004137;28;20571;-50
2021/12/24 09:43:18;;;;;;;9.88;3.70;;;7.60;97.30;;;;;;5010471;28;20048;-50
2021/12/24 09:45:44;;;;;;;7.63;2.83;;;7.60;97.40;;;;;;5009063;28;20030;-50
2021/12/24 09:48:09;;;;;;;9.80;4.90;;;7.70;97.40;;;;;;5008401;28;20197;-50
2021/12/24 09:50:35;;;;;;;8.32;3.83;;;7.60;97.40;;;;;;5005506;28;20132;-49
2021/12/24 09:53:01;;;;;;;5.50;2.80;;;7.60;97.50;;;;;;4999932;28;20022;-50
2021/12/24 09:55:29;;;;;;;6.60;3.20;;;7.60;97.50;;;;;;5002934;28;20373;-50
2021/12/24 09:57:55;;;;;;;1.63;1.05;;;7.60;97.50;;;;;;5004889;28;20345;-50
2021/12/24 10:00:23;;;;;;;10.85;4.13;;;7.60;97.50;;;;;;5003161;28;20026;-50
2021/12/24 10:02:54;;;;;;;10.07;3.72;;;7.60;97.50;;;;;;5004256;28;20477;-49
2021/12/24 10:05:26;;;;;;;7.75;4.07;;;7.60;97.60;;;;;;4999980;28;20026;-49
2021/12/24 10:07:57;;;;;;;7.05;4.05;;;7.60;97.70;;;;;;5003598;28;20022;-50
2021/12/24 10:10:28;;;;;;;7.25;3.70;;;7.60;97.80;;;;;;5002878;28;20060;-50
2021/12/24 10:12:54;;;;;;;6.25;3.22;;;7.60;97.90;;;;;;5004861;28;20034;-50
2021/12/24 10:15:19;;;;;;;7.03;3.45;;;7.70;97.90;;;;;;5004151;28;20505;-49
2021/12/24 10:17:46;;;;;;;7.25;3.88;;;7.70;97.90;;;;;;5004761;28;20105;-50
2021/12/24 10:20:13;;;;;;;10.95;4.28;;;7.70;98.00;;;;;;5005129;28;20065;-50
2021/12/24 10:22:52;;;;;;;8.18;3.78;;;7.70;98.10;;;;;;5004699;28;20590;-50
2021/12/24 10:25:24;;;;;;;7.22;4.03;;;7.70;98.10;;;;;;5006671;28;20460;-49
2021/12/24 10:27:50;;;;;;;7.05;3.53;;;7.70;98.00;;;;;;5003078;28;20031;-50
2021/12/24 10:30:26;;;;;;;9.50;3.92;;;7.70;98.20;;;;;;5001708;28;20064;-50
2021/12/24 10:32:55;;;;;;;6.82;3.40;;;7.70;98.20;;;;;;5004300;28;20026;-50
2021/12/24 10:35:31;;;;;;;10.77;4.53;;;7.70;98.20;;;;;;5003025;28;20034;-49
2021/12/24 10:38:13;;;;;;;8.50;3.92;;;7.70;98.20;;;;;;5000369;28;20414;-49
2021/12/24 10:41:08;;;;;;;8.40;3.70;;;7.70;98.40;;;;;;5005941;28;20037;-50
2021/12/24 10:43:36;;;;;;;7.80;3.88;;;7.70;98.20;;;;;;5007752;28;20030;-50
2021/12/24 10:46:18;;;;;;;5.35;3.13;;;7.70;98.20;;;;;;5008136;28;21073;-50
2021/12/24 10:49:08;;;;;;;7.13;3.10;;;7.70;98.20;;;;;;5006082;28;20041;-50
2021/12/24 10:51:59;;;;;;;10.75;4.53;;;7.70;98.30;;;;;;5006327;28;20026;-49
2021/12/24 10:54:25;;;;;;;9.52;3.17;;;7.70;98.30;;;;;;5007443;28;20469;-50
2021/12/24 10:56:51;;;;;;;16.10;4.70;;;7.70;98.40;;;;;;5008067;28;20030;-50
2021/12/24 10:59:41;;;;;;;8.90;3.80;;;7.70;98.40;;;;;;5008013;28;20064;-50
2021/12/24 11:02:08;;;;;;;6.95;3.00;;;7.70;98.40;;;;;;5007246;28;20555;-49
2021/12/24 11:04:35;;;;;;;11.07;3.72;;;7.70;98.50;;;;;;5008207;28;20038;-50
2021/12/24 11:07:01;;;;;;;8.40;4.15;;;7.70;98.50;;;;;;5006798;28;20049;-50
2021/12/24 11:09:27;;;;;;;7.45;3.85;;;7.70;98.50;;;;;;5003997;28;20469;-50
2021/12/24 11:11:55;;;;;;;5.38;2.85;;;7.70;98.50;;;;;;5007530;28;20084;-49
2021/12/24 11:14:21;;;;;;;11.45;3.97;;;7.70;98.60;;;;;;5007358;28;20030;-50
2021/12/24 11:16:47;;;;;;;11.40;3.67;;;7.70;98.80;;;;;;5007731;28;20111;-49
2021/12/24 11:19:13;;;;;;;15.25;4.20;;;7.70;98.60;;;;;;5005113;28;20465;-50
2021/12/24 11:21:39;;;;;;;3.80;2.90;;;7.70;98.50;;;;;;5002549;28;20081;-50
2021/12/24 11:24:05;;;;;;;9.70;4.30;;;7.70;98.60;;;;;;5002410;28;20018;-50
2021/12/24 11:26:34;;;;;;;9.15;4.10;;;7.80;98.60;;;;;;5004092;28;20058;-50
2021/12/24 11:29:00;;;;;;;5.03;2.87;;;7.70;98.50;;;;;;5004321;28;20053;-50
2021/12/24 11:31:30;;;;;;;8.07;3.30;;;7.70;98.60;;;;;;5003596;28;20729;-49
2021/12/24 11:33:58;;;;;;;12.35;3.00;;;7.70;98.70;;;;;;5005757;28;20412;-50
2021/12/24 11:36:26;;;;;;;3.58;1.85;;;7.80;98.70;;;;;;5003986;28;20049;-49
2021/12/24 11:39:02;;;;;;;6.00;3.70;;;7.80;98.60;;;;;;5005302;28;20080;-49
2021/12/24 11:41:31;;;;;;;9.70;4.38;;;7.80;98.70;;;;;;5002070;28;20076;-49
2021/12/24 11:43:57;;;;;;;8.02;4.32;;;7.80;98.70;;;;;;5007473;28;20114;-50
2021/12/24 11:46:25;;;;;;;7.15;3.15;;;7.80;98.70;;;;;;5008911;28;20025;-49
2021/12/24 11:48:53;;;;;;;4.15;3.00;;;7.80;98.80;;;;;;5006880;28;20507;-49
2021/12/24 11:51:20;;;;;;;6.20;3.40;;;7.80;98.80;;;;;;5002599;28;20460;-50
2021/12/24 11:53:47;;;;;;;9.35;4.00;;;7.80;98.70;;;;;;5003396;28;20041;-50
2021/12/24 11:56:16;;;;;;;8.82;4.03;;;7.80;98.80;;;;;;5007117;28;20447;-50
2021/12/24 11:58:45;;;;;;;7.10;3.25;;;7.80;98.80;;;;;;5009952;28;20050;-50
2021/12/24 12:01:14;;;;;;;5.00;3.35;;;7.80;98.90;;;;;;5001330;28;20129;-49
2021/12/24 12:03:49;;;;;;;8.05;3.00;;;7.80;98.90;;;;;;5005518;28;20066;-50
2021/12/24 12:06:35;;;;;;;10.55;3.78;;;7.80;98.80;;;;;;5002094;28;20026;-49
2021/12/24 12:09:06;;;;;;;6.68;3.33;;;7.80;98.70;;;;;;5004786;28;20906;-49
2021/12/24 12:11:35;;;;;;;8.25;3.42;;;7.80;98.90;;;;;;5007532;28;20472;-50
2021/12/24 12:14:21;;;;;;;5.20;3.10;;;7.80;99.00;;;;;;5009316;28;20387;-49
2021/12/24 12:17:06;;;;;;;6.90;3.58;;;7.80;99.00;;;;;;5002566;28;20473;-49
2021/12/24 12:24:57;;;;;;;8.55;3.40;;;7.80;99.00;;;;;;5003920;28;20105;-49
2021/12/24 12:27:44;;;;;;;6.40;3.00;;;7.80;99.00;;;;;;4999720;28;20113;-50
2021/12/24 12:30:25;;;;;;;4.93;2.70;;;7.80;98.90;;;;;;5000337;28;20041;-50
2021/12/24 12:33:18;;;;;;;11.32;3.90;;;7.80;98.90;;;;;;5001847;28;20342;-50
2021/12/24 12:35:59;;;;;;;7.03;4.00;;;7.80;99.00;;;;;;5003439;28;20072;-49
2021/12/24 12:38:40;;;;;;;5.70;3.05;;;7.80;98.90;;;;;;5006411;28;20037;-50
2021/12/24 12:41:23;;;;;;;4.80;2.70;;;7.80;99.00;;;;;;5002306;28;20117;-50
2021/12/24 12:43:52;;;;;;;6.63;3.75;;;7.80;99.00;;;;;;5003008;28;20057;-49
2021/12/24 12:46:19;;;;;;;5.40;3.33;;;7.80;99.00;;;;;;5005594;28;20527;-50
2021/12/24 12:48:48;;;;;;;5.90;3.08;;;7.80;99.10;;;;;;5002594;28;20022;-49
2021/12/24 12:51:14;;;;;;;9.70;4.03;;;7.80;99.10;;;;;;5003530;28;20030;-50
2021/12/24 12:53:41;;;;;;;5.43;3.25;;;7.90;99.20;;;;;;5003197;28;20058;-50
2021/12/24 12:56:23;;;;;;;6.72;3.30;;;7.80;99.10;;;;;;5004046;28;20066;-50
2021/12/24 12:58:57;;;;;;;5.57;3.08;;;7.80;99.10;;;;;;5007217;28;20073;-50
2021/12/24 13:01:22;;;;;;;10.40;3.20;;;7.80;99.20;;;;;;5003698;28;20042;-50
2021/12/24 13:03:57;;;;;;;5.88;2.83;;;7.80;99.10;;;;;;5005118;28;20026;-49
2021/12/24 13:06:22;;;;;;;8.75;3.97;;;7.90;99.20;;;;;;5007100;28;20318;-50
2021/12/24 13:08:49;;;;;;;11.65;3.58;;;7.90;99.20;;;;;;5007094;28;20048;-49
2021/12/24 13:11:20;;;;;;;5.93;3.30;;;7.90;99.30;;;;;;5006182;28;20042;-50
2021/12/24 13:14:00;;;;;;;12.05;3.60;;;7.90;99.30;;;;;;5011440;28;20022;-50
2021/12/24 13:17:15;;;;;;;4.72;2.63;;;7.90;99.30;;;;;;5004962;28;20045;-50
2021/12/24 13:22:32;;;;;;;7.63;3.13;;;7.90;99.30;;;;;;5003107;28;20434;-50
2021/12/24 13:25:10;;;;;;;4.38;2.58;;;7.90;99.30;;;;;;5006289;28;20022;-49
2021/12/24 13:27:40;;;;;;;6.82;2.60;;;7.90;99.40;;;;;;5002935;28;20041;-50
2021/12/24 13:30:08;;;;;;;5.50;2.58;;;7.90;99.30;;;;;;5005670;28;20377;-50
2021/12/24 13:33:07;;;;;;;8.20;3.00;;;7.90;99.30;;;;;;5009038;28;20029;-50
2021/12/24 13:35:43;;;;;;;7.75;3.22;;;7.90;99.30;;;;;;5004259;28;20038;-48
2021/12/24 13:38:16;;;;;;;7.88;3.50;;;7.90;99.20;;;;;;5003828;28;20026;-50
2021/12/24 13:40:42;;;;;;;5.15;2.63;;;7.90;99.30;;;;;;4997939;28;20030;-49
2021/12/24 13:43:12;;;;;;;6.18;2.83;;;7.90;99.30;;;;;;5001991;28;20028;-50
2021/12/24 13:45:40;;;;;;;4.50;3.22;;;7.90;99.30;;;;;;5004152;28;20068;-50
2021/12/24 13:48:13;;;;;;;4.93;2.78;;;7.90;99.40;;;;;;5004560;28;20068;-50
2021/12/24 13:54:32;;;;;;;4.07;2.13;;;7.90;99.30;;;;;;5009334;28;20084;-50
2021/12/24 13:56:51;;;;;;;3.10;1.92;;;7.90;99.40;;;;;;5002992;28;20211;-51
2021/12/24 13:59:23;;;;;;;5.88;2.75;;;7.90;99.30;;;;;;5006464;28;20038;-50
2021/12/24 14:01:49;;;;;;;8.82;3.38;;;7.90;99.30;;;;;;5002042;28;20376;-50
2021/12/24 14:04:19;;;;;;;7.95;3.10;;;7.90;99.30;;;;;;5002280;28;20459;-50
2021/12/24 14:06:50;;;;;;;5.50;3.00;;;7.90;99.30;;;;;;5004131;28;20137;-50
2021/12/24 14:09:32;;;;;;;4.07;2.28;;;7.90;99.30;;;;;;5008148;28;20042;-50
2021/12/24 14:11:59;;;;;;;4.82;2.40;;;8.00;99.40;;;;;;5004071;28;20121;-50
2021/12/24 14:14:41;;;;;;;3.75;2.50;;;7.90;99.30;;;;;;5005032;28;20069;-50
2021/12/24 14:17:35;;;;;;;4.55;2.72;;;7.90;99.20;;;;;;5002746;28;20182;-50
2021/12/24 14:20:10;;;;;;;4.30;2.28;;;7.90;99.30;;;;;;5003293;28;20041;-50
2021/12/24 14:22:36;;;;;;;4.43;2.75;;;7.90;99.40;;;;;;5001144;28;20024;-50
2021/12/24 14:25:10;;;;;;;5.25;2.67;;;7.90;99.40;;;;;;5004471;28;20571;-50
2021/12/24 14:27:38;;;;;;;5.10;2.65;;;7.90;99.40;;;;;;5010722;28;20055;-50
2021/12/24 14:30:10;;;;;;;4.53;2.40;;;8.00;99.40;;;;;;5010156;28;20452;-50
2021/12/24 14:32:36;;;;;;;10.77;3.35;;;7.90;99.30;;;;;;5004870;28;20068;-50
2021/12/24 14:35:20;;;;;;;5.53;2.72;;;7.90;99.20;;;;;;5004433;28;20026;-50
2021/12/24 14:38:01;;;;;;;3.70;2.40;;;7.90;99.40;;;;;;5010516;28;20695;-50
2021/12/24 14:40:29;;;;;;;6.95;2.33;;;7.90;99.50;;;;;;5003546;28;20109;-50
2021/12/24 14:42:55;;;;;;;7.47;3.33;;;8.00;99.40;;;;;;5002026;28;20037;-50
2021/12/24 14:45:39;;;;;;;5.13;2.17;;;8.00;99.50;;;;;;4999066;28;20122;-49
2021/12/24 14:48:15;;;;;;;4.22;1.85;;;8.00;99.50;;;;;;5003300;28;20030;-50
2021/12/24 14:50:58;;;;;;;5.25;2.90;;;8.00;99.40;;;;;;5003489;28;20030;-50